• Join FlightAware (Why Join?)
  • Login
  • US Flag 
04:43AM EDT


 

Airport Tracker/Info


-or-


 

Live Flight TrackerFlight Track Log ✈ N41173 ✈ 19-Feb-2014 ✈ KMMU - KHTO

Flight Track Log - Related Links

Times and Time Zones

All times are in EST time to prevent confusion due to time zone crossing. See the N41173 flight status page for this flight to view local times or setup timezone preferences in your user account.

Time Position Orientation Groundspeed Altitude Reporting Facility
EST Latitude Longitude Course Direction KTS MPH feet Rate Location/Type
05:13PM 40.9333 -74.2000 14° North 185 213 6,000  Level New York TRACON
05:14PM 40.9833 -74.1833 14° North 186 214 6,000  Level New York TRACON
05:15PM 41.0333 -74.1667 14° North 189 217 6,000  Level New York TRACON
05:16PM 41.0833 -74.1500 14° North 187 215 6,000  Level New York TRACON
05:17PM 41.1333 -74.1333 14° North 192 221 6,000 -120 Level New York TRACON
05:18PM 41.1833 -74.0833 37° Northeast 219 252 5,800 -420 Descending New York TRACON
05:19PM 41.2000 -74.0000 75° East 235 270 5,200 -420 Descending New York TRACON
05:20PM 41.2000 -73.9167 90° East 229 264 5,000  Descending New York TRACON
05:21PM 41.2167 -73.8333 75° East 217 250 5,200 60 Climbing New York TRACON
05:22PM 41.2333 -73.7667 72° East 215 247 5,200 -60 Level New York TRACON
05:23PM 41.2500 -73.6833 75° East 211 243 5,100  Descending New York TRACON
05:24PM 41.2667 -73.6167 72° East 205 236 5,200  Climbing New York TRACON
05:25PM 41.2833 -73.5500 72° East 207 238 5,100  Descending New York TRACON
05:26PM 41.2667 -73.4667 105° East 207 238 5,200  Climbing New York TRACON
05:27PM 41.2500 -73.4000 108° East 208 239 5,200  Level New York TRACON
05:28PM 41.2333 -73.3167 105° East 210 242 5,200  Level New York TRACON
05:29PM 41.2167 -73.2500 108° East 205 236 5,200  Level New York TRACON
05:30PM 41.1833 -73.1833 124° Southeast 207 238 5,200 -60 Level New York TRACON
05:31PM 41.1667 -73.1167 108° East 208 239 5,100  Descending New York TRACON
05:32PM 41.1500 -73.0500 108° East 211 243 5,200  Climbing New York TRACON
05:33PM 41.1333 -72.9833 108° East 210 242 5,100 -60 Descending New York TRACON
05:34PM 41.1000 -72.9000 118° Southeast 215 247 5,100  Level New York TRACON
05:35PM 41.0833 -72.8333 108° East 205 236 5,100 -60 Level New York TRACON
05:36PM 41.0500 -72.8000 143° Southeast 188 216 5,000 -720 Descending New York TRACON
05:37PM 41.0000 -72.8167 194° South 184 212 3,700 -840 Descending New York TRACON
05:38PM 40.9667 -72.8667 229° Southwest 157 181 3,400 -360 Descending New York TRACON
05:39PM 40.9500 -72.9000 237° Southwest 150 173 3,000 -600 Descending New York TRACON
05:40PM 40.9167 -72.9500 229° Southwest 159 183 2,200 -420 Descending New York TRACON
05:41PM 40.8833 -72.9833 217° Southwest 133 153 2,200 -120 Level New York TRACON
05:42PM 40.8667 -73.0167 237° Southwest 109 125 2,000 -420 Descending New York TRACON
05:43PM 40.8500 -73.0333 217° Southwest 104 120 1,500 -540 Descending New York TRACON
05:44PM 40.8333 -73.0667 237° Southwest 102 117 1,000 -600 Descending New York TRACON
05:45PM 40.8000 -73.0833 201° Southwest 104 120 300 -660 Descending New York TRACON
05:47PM 40.8089 -73.0377 76° East  Level Estimated
05:54PM 40.8653 -72.7470 76° East  Level Estimated
05:55PM 40.8733 -72.7054 76° East  Level Estimated
05:56PM 40.8813 -72.6638 76° East  Level Estimated
05:57PM 40.8892 -72.6222 76° East  Level Estimated
05:58PM 40.8972 -72.5806 76° East  Level Estimated
05:59PM 40.9051 -72.5390 76° East  Level Estimated
06:00PM 40.9130 -72.4974 76° East  Level Estimated
06:01PM 40.9209 -72.4558 76° East  Level Estimated
06:02PM 40.9288 -72.4141 76° East  Level Estimated
06:03PM 40.9367 -72.3725 76° East  Level Estimated
06:04PM 40.9445 -72.3308 76° East  Level Estimated
06:05PM 40.9524 -72.2891 76° East  Level Estimated
06:06PM 40.9594 -72.2517 76° East  Level Estimated
06:07PM 40.9594 -72.2517 143° Southeast  Level Estimated
06:08PM 40.9594 -72.2517 143° Southeast  Level Estimated
06:09PM 40.9594 -72.2517 143° Southeast  Level Estimated
06:10PM 40.9594 -72.2517 143° Southeast  Level Estimated
06:11PM 40.9594 -72.2517 143° Southeast  Level Estimated
06:12PM 40.9594 -72.2517 143° Southeast  Level Estimated
06:13PM 40.9594 -72.2517 143° Southeast  Level Estimated
06:14PM 40.9594 -72.2517 143° Southeast  Level Estimated
06:15PM 40.9594 -72.2517 143° Southeast  Level Estimated
06:16PM 40.9594 -72.2517 143° Southeast  Level Estimated
06:17PM 40.9594 -72.2517 143° Southeast  Level Estimated
06:18PM 40.9594 -72.2517 143° Southeast  Level Estimated
06:19PM 40.9594 -72.2517 143° Southeast  Level Estimated
06:20PM 40.9594 -72.2517 143° Southeast  Level Estimated
06:21PM 40.9594 -72.2517 143° Southeast  Level Estimated
06:22PM 40.9594 -72.2517 143° Southeast  Level Estimated
06:23PM 40.9594 -72.2517 143° Southeast  Level Estimated
06:24PM 40.9594 -72.2517 143° Southeast  Level Estimated
06:25PM 40.9594 -72.2517 143° Southeast  Level Estimated
06:26PM 40.9594 -72.2517 143° Southeast  Level Estimated
06:27PM 40.9594 -72.2517 143° Southeast  Level Estimated
06:28PM 40.9594 -72.2517 143° Southeast  Level Estimated
06:29PM 40.9594 -72.2517 143° Southeast  Level Estimated
06:30PM 40.9594 -72.2517 143° Southeast  Level Estimated